sensor_id;sensor_type;location;lat;lon;timestamp;P1;durP1;ratioP1;P2;durP2;ratioP2
30335;SDS011;17142;47.990;7.846;2023-11-21T06:21:37;5.30;;;3.30;;
30335;SDS011;17142;47.990;7.846;2023-11-21T06:24:03;4.47;;;4.07;;
30335;SDS011;17142;47.990;7.846;2023-11-21T06:26:32;4.50;;;3.30;;
30335;SDS011;17142;47.990;7.846;2023-11-21T06:29:00;4.73;;;3.10;;
30335;SDS011;17142;47.990;7.846;2023-11-21T06:31:28;3.10;;;2.60;;
30335;SDS011;17142;47.990;7.846;2023-11-21T06:33:57;3.30;;;3.00;;
30335;SDS011;17142;47.990;7.846;2023-11-21T06:36:24;3.13;;;2.83;;
30335;SDS011;17142;47.990;7.846;2023-11-21T06:38:51;3.00;;;2.40;;
30335;SDS011;17142;47.990;7.846;2023-11-21T06:41:17;2.57;;;2.00;;
30335;SDS011;17142;47.990;7.846;2023-11-21T06:43:43;5.07;;;2.43;;
30335;SDS011;17142;47.990;7.846;2023-11-21T06:46:12;2.53;;;1.80;;
30335;SDS011;17142;47.990;7.846;2023-11-21T06:48:40;2.60;;;2.40;;
30335;SDS011;17142;47.990;7.846;2023-11-21T06:51:09;4.07;;;2.77;;
30335;SDS011;17142;47.990;7.846;2023-11-21T06:53:35;3.90;;;2.87;;
30335;SDS011;17142;47.990;7.846;2023-11-21T06:56:01;3.00;;;2.20;;
30335;SDS011;17142;47.990;7.846;2023-11-21T06:58:27;4.07;;;3.07;;
30335;SDS011;17142;47.990;7.846;2023-11-21T07:00:53;3.63;;;3.33;;
30335;SDS011;17142;47.990;7.846;2023-11-21T07:03:23;6.90;;;3.40;;
30335;SDS011;17142;47.990;7.846;2023-11-21T07:05:49;3.90;;;3.13;;
30335;SDS011;17142;47.990;7.846;2023-11-21T07:08:14;6.40;;;4.60;;
30335;SDS011;17142;47.990;7.846;2023-11-21T07:10:42;4.17;;;3.43;;
30335;SDS011;17142;47.990;7.846;2023-11-21T07:13:11;9.60;;;3.73;;
30335;SDS011;17142;47.990;7.846;2023-11-21T07:15:37;4.60;;;3.23;;
30335;SDS011;17142;47.990;7.846;2023-11-21T07:18:03;5.40;;;3.17;;
30335;SDS011;17142;47.990;7.846;2023-11-21T07:20:28;4.53;;;2.83;;
30335;SDS011;17142;47.990;7.846;2023-11-21T07:22:55;4.20;;;3.00;;
30335;SDS011;17142;47.990;7.846;2023-11-21T07:25:21;6.13;;;3.27;;
30335;SDS011;17142;47.990;7.846;2023-11-21T07:27:47;5.70;;;2.70;;
30335;SDS011;17142;47.990;7.846;2023-11-21T07:30:12;5.20;;;3.07;;
30335;SDS011;17142;47.990;7.846;2023-11-21T07:32:38;5.67;;;4.03;;
30335;SDS011;17142;47.990;7.846;2023-11-21T07:35:05;4.07;;;2.90;;
30335;SDS011;17142;47.990;7.846;2023-11-21T07:37:30;3.67;;;2.40;;
30335;SDS011;17142;47.990;7.846;2023-11-21T07:39:56;2.50;;;2.30;;
30335;SDS011;17142;47.990;7.846;2023-11-21T07:42:23;4.07;;;2.10;;
30335;SDS011;17142;47.990;7.846;2023-11-21T07:44:51;2.27;;;2.07;;
30335;SDS011;17142;47.990;7.846;2023-11-21T07:47:19;2.57;;;1.90;;
30335;SDS011;17142;47.990;7.846;2023-11-21T07:49:45;2.30;;;2.10;;
30335;SDS011;17142;47.990;7.846;2023-11-21T07:52:12;3.47;;;2.43;;
30335;SDS011;17142;47.990;7.846;2023-11-21T07:54:41;3.60;;;2.20;;
30335;SDS011;17142;47.990;7.846;2023-11-21T07:57:07;1.70;;;1.10;;
30335;SDS011;17142;47.990;7.846;2023-11-21T07:59:32;2.37;;;2.07;;
30335;SDS011;17142;47.990;7.846;2023-11-21T08:01:58;2.13;;;1.80;;
30335;SDS011;17142;47.990;7.846;2023-11-21T08:04:24;3.30;;;1.40;;
30335;SDS011;17142;47.990;7.846;2023-11-21T08:06:54;2.00;;;1.40;;
30335;SDS011;17142;47.990;7.846;2023-11-21T08:09:22;2.13;;;1.33;;
30335;SDS011;17142;47.990;7.846;2023-11-21T08:11:51;1.73;;;1.63;;
30335;SDS011;17142;47.990;7.846;2023-11-21T08:14:17;5.67;;;5.17;;
30335;SDS011;17142;47.990;7.846;2023-11-21T08:16:50;2.63;;;2.43;;
30335;SDS011;17142;47.990;7.846;2023-11-21T08:19:16;5.70;;;4.40;;
30335;SDS011;17142;47.990;7.846;2023-11-21T08:21:43;2.63;;;2.13;;
30335;SDS011;17142;47.990;7.846;2023-11-21T08:24:12;4.60;;;4.20;;
30335;SDS011;17142;47.990;7.846;2023-11-21T08:26:40;3.70;;;3.40;;
30335;SDS011;17142;47.990;7.846;2023-11-21T08:29:08;3.20;;;2.90;;
30335;SDS011;17142;47.990;7.846;2023-11-21T08:31:33;3.57;;;3.13;;
30335;SDS011;17142;47.990;7.846;2023-11-21T08:33:59;3.10;;;1.43;;
30335;SDS011;17142;47.990;7.846;2023-11-21T08:36:28;3.13;;;2.57;;
30335;SDS011;17142;47.990;7.846;2023-11-21T08:38:53;3.00;;;2.40;;
30335;SDS011;17142;47.990;7.846;2023-11-21T08:41:19;4.53;;;2.47;;
30335;SDS011;17142;47.990;7.846;2023-11-21T08:43:47;2.30;;;1.77;;
30335;SDS011;17142;47.990;7.846;2023-11-21T08:46:14;1.53;;;1.23;;
30335;SDS011;17142;47.990;7.846;2023-11-21T08:48:42;2.33;;;1.50;;
30335;SDS011;17142;47.990;7.846;2023-11-21T08:51:09;2.47;;;1.80;;
30335;SDS011;17142;47.990;7.846;2023-11-21T08:53:39;1.70;;;1.30;;
30335;SDS011;17142;47.990;7.846;2023-11-21T08:56:05;3.20;;;1.97;;
30335;SDS011;17142;47.990;7.846;2023-11-21T08:58:31;2.30;;;2.10;;
30335;SDS011;17142;47.990;7.846;2023-11-21T09:01:02;2.20;;;2.00;;
30335;SDS011;17142;47.990;7.846;2023-11-21T09:03:28;3.00;;;2.37;;
30335;SDS011;17142;47.990;7.846;2023-11-21T09:05:53;2.97;;;2.10;;
30335;SDS011;17142;47.990;7.846;2023-11-21T09:08:19;2.53;;;2.30;;
30335;SDS011;17142;47.990;7.846;2023-11-21T09:10:47;3.20;;;2.20;;
30335;SDS011;17142;47.990;7.846;2023-11-21T09:13:12;2.53;;;2.17;;
30335;SDS011;17142;47.990;7.846;2023-11-21T09:15:38;2.40;;;1.73;;
30335;SDS011;17142;47.990;7.846;2023-11-21T09:18:05;1.53;;;1.30;;
30335;SDS011;17142;47.990;7.846;2023-11-21T09:20:33;2.30;;;1.57;;
30335;SDS011;17142;47.990;7.846;2023-11-21T09:22:58;3.50;;;1.90;;
30335;SDS011;17142;47.990;7.846;2023-11-21T09:25:24;2.20;;;1.63;;
30335;SDS011;17142;47.990;7.846;2023-11-21T09:27:49;3.50;;;2.10;;
30335;SDS011;17142;47.990;7.846;2023-11-21T09:30:17;4.70;;;1.40;;
30335;SDS011;17142;47.990;7.846;2023-11-21T09:32:43;1.47;;;1.00;;
30335;SDS011;17142;47.990;7.846;2023-11-21T09:35:10;1.90;;;1.30;;
30335;SDS011;17142;47.990;7.846;2023-11-21T09:37:36;1.30;;;1.20;;
30335;SDS011;17142;47.990;7.846;2023-11-21T09:40:03;2.00;;;1.17;;
30335;SDS011;17142;47.990;7.846;2023-11-21T09:47:40;2.50;;;1.70;;
30335;SDS011;17142;47.990;7.846;2023-11-21T09:50:10;2.70;;;1.87;;
30335;SDS011;17142;47.990;7.846;2023-11-21T09:52:48;3.00;;;1.93;;
30335;SDS011;17142;47.990;7.846;2023-11-21T09:55:25;2.23;;;2.03;;
30335;SDS011;17142;47.990;7.846;2023-11-21T09:57:54;1.30;;;1.17;;
30335;SDS011;17142;47.990;7.846;2023-11-21T10:00:22;3.03;;;1.03;;
30335;SDS011;17142;47.990;7.846;2023-11-21T10:02:49;1.27;;;1.00;;
30335;SDS011;17142;47.990;7.846;2023-11-21T10:05:16;6.57;;;1.63;;
30335;SDS011;17142;47.990;7.846;2023-11-21T10:07:47;1.37;;;1.20;;
30335;SDS011;17142;47.990;7.846;2023-11-21T10:10:15;2.13;;;1.20;;
30335;SDS011;17142;47.990;7.846;2023-11-21T10:12:43;1.10;;;1.00;;
30335;SDS011;17142;47.990;7.846;2023-11-21T10:15:18;2.37;;;1.30;;
30335;SDS011;17142;47.990;7.846;2023-11-21T10:17:46;1.90;;;1.40;;
30335;SDS011;17142;47.990;7.846;2023-11-21T10:20:14;1.50;;;1.10;;
30335;SDS011;17142;47.990;7.846;2023-11-21T10:22:42;7.37;;;1.70;;
30335;SDS011;17142;47.990;7.846;2023-11-21T10:25:11;2.37;;;1.30;;
30335;SDS011;17142;47.990;7.846;2023-11-21T10:27:41;1.70;;;1.37;;
30335;SDS011;17142;47.990;7.846;2023-11-21T10:30:11;4.73;;;1.50;;
30335;SDS011;17142;47.990;7.846;2023-11-21T10:32:41;2.20;;;1.70;;
30335;SDS011;17142;47.990;7.846;2023-11-21T10:35:08;2.60;;;2.40;;
30335;SDS011;17142;47.990;7.846;2023-11-21T10:37:40;1.53;;;1.30;;
30335;SDS011;17142;47.990;7.846;2023-11-21T10:40:09;2.80;;;1.70;;
30335;SDS011;17142;47.990;7.846;2023-11-21T10:42:38;3.30;;;1.50;;
30335;SDS011;17142;47.990;7.846;2023-11-21T10:45:09;3.63;;;2.30;;
30335;SDS011;17142;47.990;7.846;2023-11-21T10:47:39;5.93;;;2.43;;
30335;SDS011;17142;47.990;7.846;2023-11-21T10:50:05;3.37;;;1.73;;
30335;SDS011;17142;47.990;7.846;2023-11-21T10:52:39;2.77;;;1.70;;
30335;SDS011;17142;47.990;7.846;2023-11-21T10:55:20;4.60;;;2.80;;
30335;SDS011;17142;47.990;7.846;2023-11-21T10:57:48;2.03;;;1.73;;
30335;SDS011;17142;47.990;7.846;2023-11-21T11:00:18;1.50;;;1.30;;
30335;SDS011;17142;47.990;7.846;2023-11-21T11:02:46;1.70;;;1.60;;
30335;SDS011;17142;47.990;7.846;2023-11-21T11:05:18;4.70;;;2.27;;
30335;SDS011;17142;47.990;7.846;2023-11-21T11:07:45;2.73;;;2.10;;
30335;SDS011;17142;47.990;7.846;2023-11-21T11:10:22;2.90;;;2.03;;
30335;SDS011;17142;47.990;7.846;2023-11-21T11:12:51;4.70;;;1.87;;
30335;SDS011;17142;47.990;7.846;2023-11-21T11:15:22;1.73;;;1.20;;
30335;SDS011;17142;47.990;7.846;2023-11-21T11:17:51;4.47;;;2.07;;
30335;SDS011;17142;47.990;7.846;2023-11-21T11:20:22;2.00;;;1.40;;
30335;SDS011;17142;47.990;7.846;2023-11-21T11:25:58;3.00;;;2.80;;
30335;SDS011;17142;47.990;7.846;2023-11-21T11:31:47;3.00;;;2.37;;
30335;SDS011;17142;47.990;7.846;2023-11-21T11:34:47;2.23;;;1.80;;
30335;SDS011;17142;47.990;7.846;2023-11-21T11:37:31;6.17;;;2.43;;
30335;SDS011;17142;47.990;7.846;2023-11-21T11:39:57;5.13;;;2.63;;
30335;SDS011;17142;47.990;7.846;2023-11-21T11:42:27;5.17;;;3.10;;
30335;SDS011;17142;47.990;7.846;2023-11-21T11:44:52;3.10;;;2.80;;
30335;SDS011;17142;47.990;7.846;2023-11-21T11:47:22;3.00;;;2.40;;
30335;SDS011;17142;47.990;7.846;2023-11-21T11:55:09;4.83;;;2.90;;
30335;SDS011;17142;47.990;7.846;2023-11-21T11:57:37;3.93;;;3.20;;
30335;SDS011;17142;47.990;7.846;2023-11-21T12:03:02;3.03;;;2.20;;
30335;SDS011;17142;47.990;7.846;2023-11-21T12:05:29;3.07;;;2.77;;
30335;SDS011;17142;47.990;7.846;2023-11-21T12:07:59;3.50;;;2.53;;
30335;SDS011;17142;47.990;7.846;2023-11-21T12:10:32;3.57;;;2.20;;
30335;SDS011;17142;47.990;7.846;2023-11-21T12:13:03;4.03;;;2.93;;
30335;SDS011;17142;47.990;7.846;2023-11-21T12:15:30;4.47;;;2.50;;
30335;SDS011;17142;47.990;7.846;2023-11-21T12:17:56;2.30;;;2.10;;
30335;SDS011;17142;47.990;7.846;2023-11-21T12:20:24;3.33;;;2.70;;
30335;SDS011;17142;47.990;7.846;2023-11-21T12:25:27;2.73;;;2.07;;
30335;SDS011;17142;47.990;7.846;2023-11-21T12:27:55;3.00;;;2.30;;
30335;SDS011;17142;47.990;7.846;2023-11-21T12:30:22;5.97;;;2.50;;
30335;SDS011;17142;47.990;7.846;2023-11-21T12:32:49;3.27;;;2.67;;
30335;SDS011;17142;47.990;7.846;2023-11-21T12:35:19;4.30;;;2.77;;
30335;SDS011;17142;47.990;7.846;2023-11-21T12:37:48;2.50;;;2.30;;
30335;SDS011;17142;47.990;7.846;2023-11-21T12:40:15;3.83;;;3.33;;
30335;SDS011;17142;47.990;7.846;2023-11-21T12:42:42;3.40;;;3.10;;
30335;SDS011;17142;47.990;7.846;2023-11-21T12:45:10;4.20;;;3.60;;
30335;SDS011;17142;47.990;7.846;2023-11-21T12:50:25;4.07;;;2.97;;
30335;SDS011;17142;47.990;7.846;2023-11-21T12:52:58;3.77;;;3.20;;
30335;SDS011;17142;47.990;7.846;2023-11-21T12:55:29;4.70;;;4.13;;
30335;SDS011;17142;47.990;7.846;2023-11-21T12:57:59;6.37;;;4.57;;
30335;SDS011;17142;47.990;7.846;2023-11-21T13:00:36;6.23;;;4.50;;
30335;SDS011;17142;47.990;7.846;2023-11-21T13:03:11;5.97;;;4.20;;
30335;SDS011;17142;47.990;7.846;2023-11-21T13:05:40;5.93;;;4.23;;
30335;SDS011;17142;47.990;7.846;2023-11-21T13:08:15;4.27;;;2.93;;
30335;SDS011;17142;47.990;7.846;2023-11-21T13:10:44;4.20;;;3.80;;
30335;SDS011;17142;47.990;7.846;2023-11-21T13:13:12;4.53;;;3.90;;
30335;SDS011;17142;47.990;7.846;2023-11-21T13:15:49;3.60;;;2.90;;
30335;SDS011;17142;47.990;7.846;2023-11-21T13:18:22;4.90;;;3.93;;
30335;SDS011;17142;47.990;7.846;2023-11-21T13:20:49;4.23;;;3.23;;
30335;SDS011;17142;47.990;7.846;2023-11-21T13:23:15;2.43;;;2.23;;
30335;SDS011;17142;47.990;7.846;2023-11-21T13:25:41;6.57;;;3.77;;
30335;SDS011;17142;47.990;7.846;2023-11-21T13:28:11;4.50;;;4.10;;
30335;SDS011;17142;47.990;7.846;2023-11-21T13:30:37;4.27;;;2.97;;
30335;SDS011;17142;47.990;7.846;2023-11-21T13:33:05;4.40;;;2.50;;
30335;SDS011;17142;47.990;7.846;2023-11-21T13:35:39;3.00;;;2.70;;
30335;SDS011;17142;47.990;7.846;2023-11-21T13:38:12;4.53;;;2.60;;
30335;SDS011;17142;47.990;7.846;2023-11-21T13:40:55;2.37;;;2.00;;
30335;SDS011;17142;47.990;7.846;2023-11-21T13:43:22;2.13;;;1.93;;
30335;SDS011;17142;47.990;7.846;2023-11-21T13:45:50;3.00;;;2.27;;
30335;SDS011;17142;47.990;7.846;2023-11-21T13:48:23;1.87;;;1.67;;
30335;SDS011;17142;47.990;7.846;2023-11-21T13:51:05;3.10;;;2.40;;
30335;SDS011;17142;47.990;7.846;2023-11-21T13:53:45;3.43;;;3.13;;
30335;SDS011;17142;47.990;7.846;2023-11-21T13:56:17;4.60;;;3.13;;
30335;SDS011;17142;47.990;7.846;2023-11-21T13:58:49;4.40;;;3.80;;
30335;SDS011;17142;47.990;7.846;2023-11-21T14:01:17;5.30;;;4.17;;
30335;SDS011;17142;47.990;7.846;2023-11-21T14:04:04;5.03;;;3.27;;
30335;SDS011;17142;47.990;7.846;2023-11-21T14:06:41;7.40;;;4.17;;
30335;SDS011;17142;47.990;7.846;2023-11-21T14:09:23;6.57;;;4.10;;
30335;SDS011;17142;47.990;7.846;2023-11-21T14:12:00;5.70;;;3.50;;
30335;SDS011;17142;47.990;7.846;2023-11-21T14:14:31;4.83;;;4.43;;
30335;SDS011;17142;47.990;7.846;2023-11-21T14:16:59;3.97;;;3.57;;
30335;SDS011;17142;47.990;7.846;2023-11-21T14:19:25;5.03;;;3.57;;
30335;SDS011;17142;47.990;7.846;2023-11-21T14:21:58;3.90;;;3.50;;
30335;SDS011;17142;47.990;7.846;2023-11-21T14:24:25;7.63;;;4.77;;
30335;SDS011;17142;47.990;7.846;2023-11-21T14:26:50;6.13;;;4.40;;
30335;SDS011;17142;47.990;7.846;2023-11-21T14:29:17;3.30;;;2.87;;
30335;SDS011;17142;47.990;7.846;2023-11-21T14:31:47;3.23;;;2.27;;
30335;SDS011;17142;47.990;7.846;2023-11-21T14:34:16;5.50;;;5.00;;
30335;SDS011;17142;47.990;7.846;2023-11-21T14:36:42;5.30;;;4.53;;
30335;SDS011;17142;47.990;7.846;2023-11-21T14:39:09;5.03;;;3.70;;
30335;SDS011;17142;47.990;7.846;2023-11-21T14:41:47;5.90;;;4.90;;
30335;SDS011;17142;47.990;7.846;2023-11-21T14:44:14;2.63;;;2.10;;
30335;SDS011;17142;47.990;7.846;2023-11-21T14:46:40;5.07;;;3.97;;
30335;SDS011;17142;47.990;7.846;2023-11-21T14:49:11;3.47;;;3.17;;
30335;SDS011;17142;47.990;7.846;2023-11-21T14:51:45;5.60;;;4.13;;
30335;SDS011;17142;47.990;7.846;2023-11-21T14:54:29;2.43;;;2.23;;
30335;SDS011;17142;47.990;7.846;2023-11-21T14:57:27;2.00;;;1.80;;
30335;SDS011;17142;47.990;7.846;2023-11-21T14:59:53;2.30;;;2.00;;
30335;SDS011;17142;47.990;7.846;2023-11-21T15:02:23;3.67;;;3.20;;
30335;SDS011;17142;47.990;7.846;2023-11-21T15:05:09;4.40;;;4.00;;
30335;SDS011;17142;47.990;7.846;2023-11-21T15:07:40;5.07;;;4.57;;
30335;SDS011;17142;47.990;7.846;2023-11-21T15:10:06;4.23;;;3.83;;
30335;SDS011;17142;47.990;7.846;2023-11-21T15:12:39;3.83;;;3.53;;
30335;SDS011;17142;47.990;7.846;2023-11-21T15:15:05;4.10;;;3.70;;
30335;SDS011;17142;47.990;7.846;2023-11-21T15:17:35;3.27;;;2.90;;
30335;SDS011;17142;47.990;7.846;2023-11-21T15:20:02;5.40;;;4.90;;
30335;SDS011;17142;47.990;7.846;2023-11-21T15:22:29;5.20;;;3.70;;
30335;SDS011;17142;47.990;7.846;2023-11-21T15:24:59;3.03;;;2.80;;
30335;SDS011;17142;47.990;7.846;2023-11-21T15:27:33;3.37;;;3.07;;
30335;SDS011;17142;47.990;7.846;2023-11-21T15:30:01;11.30;;;5.50;;
30335;SDS011;17142;47.990;7.846;2023-11-21T15:32:30;6.00;;;5.40;;
30335;SDS011;17142;47.990;7.846;2023-11-21T15:34:55;2.63;;;2.20;;
30335;SDS011;17142;47.990;7.846;2023-11-21T15:37:21;5.13;;;4.63;;
30335;SDS011;17142;47.990;7.846;2023-11-21T15:39:46;4.70;;;4.30;;
30335;SDS011;17142;47.990;7.846;2023-11-21T15:42:12;3.87;;;3.10;;
30335;SDS011;17142;47.990;7.846;2023-11-21T15:44:38;4.40;;;3.80;;
30335;SDS011;17142;47.990;7.846;2023-11-21T15:47:06;3.23;;;2.93;;
30335;SDS011;17142;47.990;7.846;2023-11-21T15:49:34;2.77;;;2.43;;
30335;SDS011;17142;47.990;7.846;2023-11-21T15:52:01;4.03;;;3.73;;
30335;SDS011;17142;47.990;7.846;2023-11-21T15:54:28;4.40;;;4.00;;
30335;SDS011;17142;47.990;7.846;2023-11-21T15:56:55;5.00;;;3.90;;
30335;SDS011;17142;47.990;7.846;2023-11-21T15:59:25;5.27;;;4.53;;
30335;SDS011;17142;47.990;7.846;2023-11-21T16:01:56;3.30;;;3.00;;
30335;SDS011;17142;47.990;7.846;2023-11-21T16:04:22;3.50;;;2.87;;
30335;SDS011;17142;47.990;7.846;2023-11-21T16:06:51;3.70;;;3.27;;
30335;SDS011;17142;47.990;7.846;2023-11-21T16:09:17;6.93;;;4.07;;
30335;SDS011;17142;47.990;7.846;2023-11-21T16:11:56;5.10;;;4.07;;
30335;SDS011;17142;47.990;7.846;2023-11-21T16:14:26;5.73;;;4.53;;
30335;SDS011;17142;47.990;7.846;2023-11-21T16:17:06;6.83;;;4.90;;
30335;SDS011;17142;47.990;7.846;2023-11-21T16:19:35;5.20;;;4.10;;
30335;SDS011;17142;47.990;7.846;2023-11-21T16:22:03;4.70;;;4.20;;
30335;SDS011;17142;47.990;7.846;2023-11-21T16:24:29;3.93;;;3.53;;
30335;SDS011;17142;47.990;7.846;2023-11-21T16:26:55;4.40;;;4.00;;
30335;SDS011;17142;47.990;7.846;2023-11-21T16:29:23;4.30;;;3.90;;
30335;SDS011;17142;47.990;7.846;2023-11-21T16:31:49;5.67;;;5.07;;
30335;SDS011;17142;47.990;7.846;2023-11-21T16:34:19;3.93;;;3.50;;
30335;SDS011;17142;47.990;7.846;2023-11-21T16:36:49;6.40;;;5.53;;
30335;SDS011;17142;47.990;7.846;2023-11-21T16:39:15;4.03;;;3.63;;
30335;SDS011;17142;47.990;7.846;2023-11-21T16:41:43;3.77;;;2.97;;
30335;SDS011;17142;47.990;7.846;2023-11-21T16:46:38;3.70;;;2.83;;
30335;SDS011;17142;47.990;7.846;2023-11-21T16:49:06;4.40;;;4.00;;
30335;SDS011;17142;47.990;7.846;2023-11-21T16:51:32;4.27;;;3.87;;
30335;SDS011;17142;47.990;7.846;2023-11-21T16:53:59;5.20;;;4.70;;
30335;SDS011;17142;47.990;7.846;2023-11-21T16:56:27;3.83;;;3.53;;
30335;SDS011;17142;47.990;7.846;2023-11-21T16:58:53;4.13;;;3.40;;
30335;SDS011;17142;47.990;7.846;2023-11-21T17:01:19;4.90;;;4.20;;
30335;SDS011;17142;47.990;7.846;2023-11-21T17:03:52;5.63;;;4.50;;
30335;SDS011;17142;47.990;7.846;2023-11-21T17:06:21;5.67;;;5.17;;
30335;SDS011;17142;47.990;7.846;2023-11-21T17:08:48;6.60;;;4.53;;
30335;SDS011;17142;47.990;7.846;2023-11-21T17:11:14;3.63;;;3.33;;
30335;SDS011;17142;47.990;7.846;2023-11-21T17:13:40;7.17;;;4.70;;
30335;SDS011;17142;47.990;7.846;2023-11-21T17:16:06;9.27;;;6.17;;
30335;SDS011;17142;47.990;7.846;2023-11-21T17:18:35;7.37;;;6.30;;
30335;SDS011;17142;47.990;7.846;2023-11-21T17:21:03;7.73;;;6.33;;
30335;SDS011;17142;47.990;7.846;2023-11-21T17:23:30;7.20;;;5.23;;
30335;SDS011;17142;47.990;7.846;2023-11-21T17:25:56;6.37;;;4.50;;
30335;SDS011;17142;47.990;7.846;2023-11-21T17:28:23;13.60;;;8.80;;
30335;SDS011;17142;47.990;7.846;2023-11-21T17:30:49;10.10;;;7.63;;
30335;SDS011;17142;47.990;7.846;2023-11-21T17:33:15;8.10;;;6.63;;
30335;SDS011;17142;47.990;7.846;2023-11-21T17:35:41;7.70;;;6.73;;
30335;SDS011;17142;47.990;7.846;2023-11-21T17:38:07;11.10;;;8.47;;
30335;SDS011;17142;47.990;7.846;2023-11-21T17:40:33;7.77;;;6.97;;
30335;SDS011;17142;47.990;7.846;2023-11-21T17:43:00;10.53;;;7.70;;
30335;SDS011;17142;47.990;7.846;2023-11-21T17:45:26;12.50;;;9.77;;
30335;SDS011;17142;47.990;7.846;2023-11-21T17:47:52;8.40;;;6.23;;
30335;SDS011;17142;47.990;7.846;2023-11-21T17:50:22;12.93;;;7.23;;
30335;SDS011;17142;47.990;7.846;2023-11-21T17:52:48;11.50;;;7.70;;
30335;SDS011;17142;47.990;7.846;2023-11-21T17:55:18;5.93;;;4.20;;
30335;SDS011;17142;47.990;7.846;2023-11-21T17:57:43;11.63;;;8.20;;
30335;SDS011;17142;47.990;7.846;2023-11-21T18:00:12;9.47;;;5.70;;
30335;SDS011;17142;47.990;7.846;2023-11-21T18:02:38;11.50;;;8.83;;
30335;SDS011;17142;47.990;7.846;2023-11-21T18:05:06;12.70;;;10.63;;
30335;SDS011;17142;47.990;7.846;2023-11-21T18:07:37;17.77;;;11.13;;
30335;SDS011;17142;47.990;7.846;2023-11-21T18:10:04;12.67;;;9.70;;
30335;SDS011;17142;47.990;7.846;2023-11-21T18:12:31;14.93;;;12.47;;
30335;SDS011;17142;47.990;7.846;2023-11-21T18:14:59;15.90;;;12.20;;
30335;SDS011;17142;47.990;7.846;2023-11-21T18:17:27;13.87;;;11.80;;
30335;SDS011;17142;47.990;7.846;2023-11-21T18:19:53;13.53;;;11.10;;
30335;SDS011;17142;47.990;7.846;2023-11-21T18:22:22;17.00;;;12.13;;
30335;SDS011;17142;47.990;7.846;2023-11-21T18:24:50;14.60;;;10.20;;
30335;SDS011;17142;47.990;7.846;2023-11-21T18:27:18;15.67;;;12.33;;
30335;SDS011;17142;47.990;7.846;2023-11-21T18:29:53;15.40;;;10.30;;
30335;SDS011;17142;47.990;7.846;2023-11-21T18:32:19;14.47;;;10.37;;
30335;SDS011;17142;47.990;7.846;2023-11-21T18:34:51;11.43;;;8.80;;
30335;SDS011;17142;47.990;7.846;2023-11-21T18:37:17;16.60;;;11.07;;
30335;SDS011;17142;47.990;7.846;2023-11-21T18:39:46;18.77;;;11.30;;
30335;SDS011;17142;47.990;7.846;2023-11-21T18:42:14;19.00;;;13.83;;
30335;SDS011;17142;47.990;7.846;2023-11-21T18:44:41;20.93;;;16.03;;
30335;SDS011;17142;47.990;7.846;2023-11-21T18:47:07;17.43;;;12.23;;
30335;SDS011;17142;47.990;7.846;2023-11-21T18:49:36;18.37;;;12.47;;
30335;SDS011;17142;47.990;7.846;2023-11-21T18:52:02;15.47;;;13.10;;
30335;SDS011;17142;47.990;7.846;2023-11-21T18:54:28;14.47;;;11.90;;
30335;SDS011;17142;47.990;7.846;2023-11-21T18:56:54;14.50;;;11.97;;
30335;SDS011;17142;47.990;7.846;2023-11-21T18:59:20;14.30;;;11.67;;
30335;SDS011;17142;47.990;7.846;2023-11-21T19:01:48;15.30;;;10.40;;
30335;SDS011;17142;47.990;7.846;2023-11-21T19:04:16;13.73;;;10.93;;
30335;SDS011;17142;47.990;7.846;2023-11-21T19:06:48;14.60;;;10.63;;
30335;SDS011;17142;47.990;7.846;2023-11-21T19:09:16;11.93;;;8.67;;
30335;SDS011;17142;47.990;7.846;2023-11-21T19:11:41;14.37;;;10.73;;
30335;SDS011;17142;47.990;7.846;2023-11-21T19:14:09;14.53;;;10.90;;
30335;SDS011;17142;47.990;7.846;2023-11-21T19:16:35;15.30;;;12.10;;
30335;SDS011;17142;47.990;7.846;2023-11-21T19:19:01;17.70;;;11.77;;
30335;SDS011;17142;47.990;7.846;2023-11-21T19:21:27;11.93;;;9.20;;
30335;SDS011;17142;47.990;7.846;2023-11-21T19:23:53;12.87;;;10.00;;
30335;SDS011;17142;47.990;7.846;2023-11-21T19:26:21;8.80;;;7.60;;
30335;SDS011;17142;47.990;7.846;2023-11-21T19:28:47;15.70;;;12.57;;
30335;SDS011;17142;47.990;7.846;2023-11-21T19:31:16;11.50;;;9.53;;
30335;SDS011;17142;47.990;7.846;2023-11-21T19:33:45;9.50;;;8.33;;
30335;SDS011;17142;47.990;7.846;2023-11-21T19:36:13;8.00;;;7.20;;
30335;SDS011;17142;47.990;7.846;2023-11-21T19:38:41;8.43;;;7.20;;
30335;SDS011;17142;47.990;7.846;2023-11-21T19:41:15;7.27;;;6.27;;
30335;SDS011;17142;47.990;7.846;2023-11-21T19:43:44;11.70;;;7.93;;
30335;SDS011;17142;47.990;7.846;2023-11-21T19:46:12;11.47;;;9.23;;
30335;SDS011;17142;47.990;7.846;2023-11-21T19:48:38;9.43;;;8.23;;
30335;SDS011;17142;47.990;7.846;2023-11-21T19:51:10;11.10;;;7.23;;
30335;SDS011;17142;47.990;7.846;2023-11-21T19:53:38;8.00;;;6.47;;
30335;SDS011;17142;47.990;7.846;2023-11-21T19:56:06;8.90;;;8.00;;
30335;SDS011;17142;47.990;7.846;2023-11-21T19:58:38;5.70;;;4.80;;
30335;SDS011;17142;47.990;7.846;2023-11-21T20:01:06;7.80;;;7.00;;
30335;SDS011;17142;47.990;7.846;2023-11-21T20:03:32;7.93;;;6.77;;
30335;SDS011;17142;47.990;7.846;2023-11-21T20:06:00;12.20;;;8.20;;
30335;SDS011;17142;47.990;7.846;2023-11-21T20:08:26;9.43;;;8.10;;
30335;SDS011;17142;47.990;7.846;2023-11-21T20:10:56;8.63;;;7.40;;
30335;SDS011;17142;47.990;7.846;2023-11-21T20:13:22;9.70;;;7.90;;
30335;SDS011;17142;47.990;7.846;2023-11-21T20:15:50;7.47;;;6.33;;
30335;SDS011;17142;47.990;7.846;2023-11-21T20:18:16;11.53;;;8.00;;
30335;SDS011;17142;47.990;7.846;2023-11-21T20:20:41;7.47;;;5.80;;
30335;SDS011;17142;47.990;7.846;2023-11-21T20:23:09;8.17;;;6.77;;
30335;SDS011;17142;47.990;7.846;2023-11-21T20:25:35;9.63;;;7.57;;
30335;SDS011;17142;47.990;7.846;2023-11-21T20:28:01;7.47;;;5.90;;
30335;SDS011;17142;47.990;7.846;2023-11-21T20:30:32;7.77;;;6.97;;
30335;SDS011;17142;47.990;7.846;2023-11-21T20:32:58;9.20;;;7.20;;
30335;SDS011;17142;47.990;7.846;2023-11-21T20:35:27;8.03;;;6.63;;
30335;SDS011;17142;47.990;7.846;2023-11-21T20:37:54;10.87;;;8.50;;
30335;SDS011;17142;47.990;7.846;2023-11-21T20:40:20;16.27;;;9.77;;
30335;SDS011;17142;47.990;7.846;2023-11-21T20:42:46;11.90;;;9.70;;
30335;SDS011;17142;47.990;7.846;2023-11-21T20:45:14;16.33;;;12.57;;
30335;SDS011;17142;47.990;7.846;2023-11-21T20:47:42;12.07;;;10.83;;
30335;SDS011;17142;47.990;7.846;2023-11-21T20:50:08;11.73;;;9.83;;
30335;SDS011;17142;47.990;7.846;2023-11-21T20:52:34;14.00;;;10.93;;
30335;SDS011;17142;47.990;7.846;2023-11-21T20:55:00;16.40;;;12.37;;
30335;SDS011;17142;47.990;7.846;2023-11-21T20:57:28;17.23;;;10.63;;
30335;SDS011;17142;47.990;7.846;2023-11-21T20:59:54;16.53;;;11.30;;
30335;SDS011;17142;47.990;7.846;2023-11-21T21:02:19;16.77;;;12.27;;
30335;SDS011;17142;47.990;7.846;2023-11-21T21:04:47;17.13;;;12.10;;
30335;SDS011;17142;47.990;7.846;2023-11-21T21:07:13;17.77;;;11.33;;
30335;SDS011;17142;47.990;7.846;2023-11-21T21:09:39;17.83;;;12.90;;
30335;SDS011;17142;47.990;7.846;2023-11-21T21:12:06;16.20;;;12.10;;
30335;SDS011;17142;47.990;7.846;2023-11-21T21:14:32;17.83;;;12.83;;
30335;SDS011;17142;47.990;7.846;2023-11-21T21:16:58;16.20;;;12.37;;
30335;SDS011;17142;47.990;7.846;2023-11-21T21:19:29;15.30;;;11.13;;
30335;SDS011;17142;47.990;7.846;2023-11-21T21:21:55;17.40;;;12.47;;
30335;SDS011;17142;47.990;7.846;2023-11-21T21:24:21;18.87;;;13.60;;
30335;SDS011;17142;47.990;7.846;2023-11-21T21:26:49;19.70;;;13.20;;
30335;SDS011;17142;47.990;7.846;2023-11-21T21:29:17;20.10;;;14.43;;
30335;SDS011;17142;47.990;7.846;2023-11-21T21:31:44;18.60;;;12.90;;
30335;SDS011;17142;47.990;7.846;2023-11-21T21:34:12;19.93;;;14.53;;
30335;SDS011;17142;47.990;7.846;2023-11-21T21:36:39;23.20;;;13.30;;
30335;SDS011;17142;47.990;7.846;2023-11-21T21:39:10;20.00;;;12.90;;